.
WxDataArchive / Data Records for 2008-02-07
2008-02-06 February 2008 2008-02-08

Data Records for Thursday, 07 February 2008

Time	Temp	Chill	HIndex	Humid	Dewpt	 Wind 	HiWind	WindDir	Rain 	Barom 
-----	----	-----	------	-----	-----	------	------	-------	-----	----- 
00:00	31.8	31.8	31.8	93	30.0	3	9	248	0.00	29.542 
00:05	31.8	27.8	31.8	93	30.0	4	7	248	0.00	29.546 
00:10	31.9	31.9	31.9	94	30.4	3	7	248	0.00	29.551 
00:15	32.1	28.2	32.1	94	30.6	4	7	248	0.00	29.554 
00:20	32.1	32.1	32.1	94	30.6	3	9	248	0.00	29.555 
00:25	32.4	32.4	32.4	94	30.9	3	8	248	0.00	29.557 
00:30	32.5	32.5	32.5	94	31.0	3	8	270	0.00	29.563 
00:35	32.5	32.5	32.5	94	31.0	2	6	270	0.00	29.565 
00:40	32.7	32.7	32.7	94	31.2	2	8	248	0.00	29.569 
00:45	32.8	32.8	32.8	94	31.3	2	6	248	0.00	29.571 
00:50	32.8	32.8	32.8	94	31.3	1	3	248	0.00	29.576 
00:55	32.9	32.9	32.9	94	31.4	1	3	248	0.00	29.583 
01:00	32.9	32.9	32.9	94	31.4	2	3	248	0.00	29.586 
01:05	33.1	33.1	33.1	94	31.6	2	5	270	0.00	29.587 
01:10	33.1	33.1	33.1	94	31.6	2	7	248	0.00	29.593 
01:15	33.1	33.1	33.1	94	31.6	2	5	248	0.00	29.599 
01:20	33.1	33.1	33.1	94	31.6	2	5	270	0.00	29.600 
01:25	33.1	33.1	33.1	94	31.6	2	5	270	0.00	29.602 
01:30	33.2	33.2	33.2	93	31.4	1	3	248	0.00	29.610 
01:35	33.1	33.1	33.1	93	31.3	2	4	248	0.00	29.617 
01:40	33.1	33.1	33.1	93	31.3	1	4	270	0.00	29.621 
01:45	33.1	33.1	33.1	93	31.3	1	3	270	0.00	29.626 
01:50	33.1	33.1	33.1	93	31.3	1	5	292	0.00	29.631 
01:55	32.9	32.9	32.9	93	31.1	1	3	270	0.00	29.632 
02:00	32.9	32.9	32.9	93	31.1	0	2	270	0.00	29.632 
02:05	32.9	32.9	32.9	93	31.1	1	4	292	0.00	29.637 
02:10	32.4	32.4	32.4	92	30.3	1	4	315	0.00	29.645 
02:15	32.2	32.2	32.2	92	30.1	1	4	315	0.00	29.650 
02:20	32.1	32.1	32.1	91	29.8	1	5	0	0.00	29.651 
02:25	31.9	31.9	31.9	90	29.3	1	3	0	0.00	29.654 
02:30	31.8	31.8	31.8	90	29.2	1	4	338	0.00	29.665 
02:35	31.8	31.8	31.8	89	28.9	2	4	270	0.00	29.667 
02:40	31.8	31.8	31.8	89	28.9	1	3	292	0.00	29.673 
02:45	31.8	31.8	31.8	89	28.9	1	4	315	0.00	29.681 
02:50	31.6	31.6	31.6	88	28.5	1	5	292	0.00	29.686 
02:55	31.3	31.3	31.3	88	28.2	1	4	338	0.00	29.696 
03:00	31.2	31.2	31.2	88	28.1	1	6	292	0.00	29.698 
03:05	31.0	31.0	31.0	88	27.9	1	4	292	0.00	29.700 
03:10	30.9	30.9	30.9	87	27.5	1	5	315	0.00	29.702 
03:15	30.7	30.7	30.7	87	27.3	1	4	315	0.00	29.709 
03:20	30.7	30.7	30.7	86	27.0	1	4	315	0.00	29.713 
03:25	30.7	30.7	30.7	86	27.0	2	5	292	0.00	29.714 
03:30	30.7	30.7	30.7	86	27.0	1	4	292	0.00	29.722 
03:35	30.6	30.6	30.6	86	26.9	1	4	315	0.00	29.726 
03:40	30.6	30.6	30.6	86	26.9	1	4	270	0.00	29.728 
03:45	30.6	30.6	30.6	86	26.9	1	4	292	0.00	29.729 
03:50	30.4	30.4	30.4	86	26.7	1	5	248	0.00	29.732 
03:55	30.3	30.3	30.3	86	26.6	1	3	270	0.00	29.732 
04:00	30.1	30.1	30.1	86	26.4	2	4	292	0.00	29.738 
04:05	30.0	30.0	30.0	86	26.3	1	3	315	0.00	29.745 
04:10	30.0	30.0	30.0	85	26.0	1	2	315	0.00	29.748 
04:15	30.0	30.0	30.0	86	26.3	1	4	292	0.00	29.755 
04:20	29.8	29.8	29.8	85	25.9	1	3	0	0.00	29.757 
04:25	29.5	29.5	29.5	85	25.6	1	6	292	0.00	29.762 
04:30	29.4	29.4	29.4	85	25.5	2	4	315	0.00	29.770 
04:35	29.3	29.3	29.3	85	25.4	1	5	270	0.00	29.776 
04:40	29.3	29.3	29.3	84	25.1	1	6	270	0.00	29.778 
04:45	29.1	29.1	29.1	84	24.9	1	4	315	0.00	29.782 
04:50	29.0	29.0	29.0	84	24.8	1	3	315	0.00	29.788 
04:55	29.0	29.0	29.0	84	24.8	1	4	315	0.00	29.792 
05:00	29.0	29.0	29.0	84	24.8	1	4	270	0.00	29.795 
05:05	29.0	29.0	29.0	84	24.8	1	3	315	0.00	29.797 
05:10	29.0	29.0	29.0	84	24.8	1	3	292	0.00	29.798 
05:15	28.8	28.8	28.8	84	24.6	1	3	292	0.00	29.806 
05:20	28.8	28.8	28.8	84	24.6	1	4	338	0.00	29.810 
05:25	29.0	29.0	29.0	84	24.8	1	4	292	0.00	29.814 
05:30	28.8	28.8	28.8	84	24.6	1	5	338	0.00	29.815 
05:35	28.7	28.7	28.7	84	24.5	2	5	315	0.00	29.819 
05:40	28.7	28.7	28.7	85	24.8	1	5	338	0.00	29.824 
05:45	28.5	28.5	28.5	85	24.6	1	3	292	0.00	29.825 
05:50	28.4	28.4	28.4	85	24.5	1	3	338	0.00	29.828 
05:55	28.2	28.2	28.2	85	24.3	1	3	315	0.00	29.835 
06:00	27.9	27.9	27.9	85	24.0	1	3	292	0.00	29.837 
06:05	27.9	27.9	27.9	85	24.0	2	4	338	0.00	29.840 
06:10	27.8	27.8	27.8	85	23.9	1	4	292	0.00	29.841 
06:15	27.8	27.8	27.8	86	24.2	1	3	292	0.00	29.842 
06:20	27.8	27.8	27.8	86	24.2	0	2	338	0.00	29.843 
06:25	27.8	27.8	27.8	86	24.2	1	4	315	0.00	29.848 
06:30	27.6	27.6	27.6	86	24.0	1	2	292	0.00	29.850 
06:35	27.6	27.6	27.6	86	24.0	1	5	315	0.00	29.856 
06:40	27.5	27.5	27.5	86	23.9	1	4	338	0.00	29.857 
06:45	27.5	27.5	27.5	85	23.6	1	4	270	0.00	29.862 
06:50	27.5	27.5	27.5	86	23.9	1	3	270	0.00	29.866 
06:55	27.3	27.3	27.3	86	23.7	1	5	315	0.00	29.872 
07:00	27.3	27.3	27.3	85	23.4	1	4	338	0.00	29.876 
07:05	27.3	27.3	27.3	85	23.4	1	3	292	0.00	29.881 
07:10	27.2	27.2	27.2	85	23.3	1	4	315	0.00	29.883 
07:15	27.0	27.0	27.0	84	22.8	1	2	338	0.00	29.884 
07:20	27.0	27.0	27.0	85	23.1	0	3	338	0.00	29.885 
07:25	27.0	27.0	27.0	85	23.1	1	4	292	0.00	29.887 
07:30	27.0	27.0	27.0	85	23.1	1	4	270	0.00	29.887 
07:35	27.0	27.0	27.0	85	23.1	0	2	270	0.00	29.888 
07:40	27.0	27.0	27.0	85	23.1	1	2	292	0.00	29.891 
07:45	27.0	27.0	27.0	85	23.1	0	1	292	0.00	29.892 
07:50	26.9	26.9	26.9	85	23.0	0	2	292	0.00	29.893 
07:55	26.9	26.9	26.9	85	23.0	0	1	292	0.00	29.896 
08:00	26.9	26.9	26.9	85	23.0	0	3	315	0.00	29.896 
08:05	26.7	26.7	26.7	84	22.5	1	3	338	0.00	29.905 
08:10	26.7	26.7	26.7	84	22.5	1	3	315	0.00	29.906 
08:15	26.7	26.7	26.7	84	22.5	0	1	315	0.00	29.907 
08:20	26.7	26.7	26.7	85	22.8	0	2	270	0.00	29.908 
08:25	26.9	26.9	26.9	85	23.0	0	1	270	0.00	29.911 
08:30	26.7	26.7	26.7	84	22.5	1	3	270	0.00	29.910 
08:35	26.7	26.7	26.7	84	22.5	0	2	292	0.00	29.910 
08:40	26.7	26.7	26.7	84	22.5	0	3	292	0.00	29.908 
08:45	26.7	26.7	26.7	84	22.5	0	2	292	0.00	29.908 
08:50	26.7	26.7	26.7	84	22.5	0	3	292	0.00	29.911 
08:55	26.9	26.9	26.9	84	22.7	0	2	292	0.00	29.918 
09:00	26.9	26.9	26.9	84	22.7	0	2	292	0.00	29.923 
09:05	27.0	27.0	27.0	84	22.8	0	2	292	0.00	29.923 
09:10	27.0	27.0	27.0	84	22.8	0	1	292	0.00	29.924 
09:15	27.0	27.0	27.0	83	22.5	0	2	292	0.00	29.923 
09:20	27.2	27.2	27.2	83	22.7	0	1	292	0.00	29.924 
09:25	27.2	27.2	27.2	83	22.7	0	2	292	0.00	29.926 
09:30	27.3	27.3	27.3	83	22.8	0	3	270	0.00	29.931 
09:35	27.5	27.5	27.5	83	23.0	0	3	270	0.00	29.932 
09:40	27.5	27.5	27.5	83	23.0	0	2	270	0.00	29.930 
09:45	27.6	27.6	27.6	83	23.1	0	2	270	0.00	29.928 
09:50	27.8	27.8	27.8	83	23.3	0	1	270	0.00	29.931 
09:55	27.9	27.9	27.9	83	23.4	0	1	270	0.00	29.931 
10:00	27.8	27.8	27.8	82	23.0	0	2	270	0.00	29.931 
10:05	27.8	27.8	27.8	82	23.0	0	1	270	0.00	29.935 
10:10	27.9	27.9	27.9	82	23.1	0	3	270	0.00	29.935 
10:15	27.8	27.8	27.8	82	23.0	0	2	270	0.00	29.934 
10:20	27.9	27.9	27.9	82	23.1	0	2	270	0.00	29.936 
10:25	28.1	28.1	28.1	83	23.6	0	2	270	0.00	29.936 
10:30	28.4	28.4	28.4	82	23.6	0	1	270	0.00	29.936 
10:35	28.5	28.5	28.5	82	23.7	0	1	270	0.00	29.936 
10:40	28.7	28.7	28.7	81	23.6	0	1	270	0.00	29.935 
10:45	28.8	28.8	28.8	81	23.7	0	2	270	0.00	29.937 
10:50	28.8	28.8	28.8	80	23.4	0	2	270	0.00	29.936 
10:55	29.0	29.0	29.0	81	23.9	0	2	270	0.00	29.938 
11:00	29.1	29.1	29.1	80	23.7	1	3	270	0.00	29.939 
11:05	29.1	29.1	29.1	80	23.7	0	1	248	0.00	29.939 
11:10	29.3	29.3	29.3	79	23.6	1	4	270	0.00	29.939 
11:15	29.3	29.3	29.3	78	23.3	1	5	270	0.00	29.939 
11:20	29.4	29.4	29.4	78	23.4	1	2	270	0.00	29.938 
11:25	29.7	29.7	29.7	78	23.7	0	3	270	0.00	29.936 
11:30	30.0	30.0	30.0	77	23.7	0	2	270	0.00	29.936 
11:35	30.0	30.0	30.0	76	23.4	1	3	248	0.00	29.935 
11:40	30.1	30.1	30.1	76	23.5	1	3	248	0.00	29.936 
11:45	30.1	30.1	30.1	76	23.5	0	1	248	0.00	29.937 
11:50	30.1	30.1	30.1	76	23.5	1	3	248	0.00	29.937 
11:55	30.1	30.1	30.1	76	23.5	0	1	248	0.00	29.935 
12:00	30.3	30.3	30.3	76	23.7	0	1	248	0.00	29.933 
12:05	30.4	30.4	30.4	76	23.8	0	3	248	0.00	29.930 
12:10	30.6	30.6	30.6	75	23.6	0	2	270	0.00	29.925 
12:15	30.6	30.6	30.6	75	23.6	0	2	270	0.00	29.922 
12:20	30.7	30.7	30.7	74	23.4	1	3	270	0.00	29.920 
12:25	30.6	30.6	30.6	74	23.3	1	2	270	0.00	29.920 
12:30	30.7	30.7	30.7	74	23.4	2	5	248	0.00	29.919 
12:35	30.7	30.7	30.7	74	23.4	2	5	248	0.00	29.920 
12:40	30.7	30.7	30.7	74	23.4	1	5	248	0.00	29.918 
12:45	30.9	30.9	30.9	75	23.9	0	2	270	0.00	29.918 
12:50	31.0	31.0	31.0	74	23.7	1	5	248	0.00	29.919 
12:55	31.0	31.0	31.0	75	24.0	1	3	270	0.00	29.920 
13:00	31.0	31.0	31.0	75	24.0	1	3	270	0.00	29.923 
13:05	31.0	31.0	31.0	75	24.0	1	5	248	0.00	29.922 
13:10	30.9	30.9	30.9	75	23.9	1	3	248	0.00	29.921 
13:15	30.9	30.9	30.9	75	23.9	1	3	248	0.00	29.922 
13:20	30.9	30.9	30.9	75	23.9	1	5	248	0.00	29.923 
13:25	30.7	30.7	30.7	76	24.0	1	2	292	0.00	29.924 
13:30	30.9	30.9	30.9	77	24.6	0	2	248	0.01	29.928 
13:35	30.9	30.9	30.9	77	24.6	0	2	248	0.00	29.925 
13:40	30.9	30.9	30.9	77	24.6	1	2	248	0.00	29.920 
13:45	30.9	30.9	30.9	77	24.6	1	3	248	0.00	29.918 
13:50	31.0	31.0	31.0	77	24.7	0	2	248	0.00	29.915 
13:55	30.9	30.9	30.9	76	24.2	1	2	270	0.00	29.909 
14:00	31.0	31.0	31.0	77	24.7	0	2	270	0.00	29.907 
14:05	31.2	31.2	31.2	77	24.8	0	3	248	0.01	29.906 
14:10	31.3	31.3	31.3	78	25.3	0	3	248	0.00	29.900 
14:15	31.5	31.5	31.5	78	25.4	0	1	248	0.00	29.899 
14:20	31.6	31.6	31.6	78	25.5	0	1	248	0.00	29.897 
14:25	31.6	31.6	31.6	78	25.5	0	3	248	0.01	29.899 
14:30	31.6	31.6	31.6	78	25.5	0	2	248	0.00	29.897 
14:35	31.6	31.6	31.6	78	25.5	1	2	248	0.00	29.895 
14:40	31.5	31.5	31.5	78	25.4	1	2	248	0.00	29.898 
14:45	31.5	31.5	31.5	79	25.8	1	3	248	0.00	29.900 
14:50	31.5	31.5	31.5	79	25.8	0	2	270	0.01	29.898 
14:55	31.3	31.3	31.3	80	25.9	1	3	270	0.00	29.897 
15:00	31.3	31.3	31.3	81	26.2	1	3	248	0.00	29.896 
15:05	31.3	31.3	31.3	82	26.5	1	6	248	0.00	29.899 
15:10	31.5	31.5	31.5	82	26.7	1	4	248	0.00	29.903 
15:15	31.3	31.3	31.3	81	26.2	1	4	248	0.00	29.902 
15:20	31.5	31.5	31.5	82	26.7	0	2	248	0.00	29.899 
15:25	31.5	31.5	31.5	82	26.7	0	2	248	0.01	29.893 
15:30	31.5	31.5	31.5	82	26.7	0	2	248	0.00	29.891 
15:35	31.5	31.5	31.5	82	26.7	0	3	248	0.00	29.892 
15:40	31.5	31.5	31.5	82	26.7	0	2	248	0.00	29.893 
15:45	31.5	31.5	31.5	82	26.7	0	1	248	0.00	29.891 
15:50	31.3	31.3	31.3	83	26.7	1	3	248	0.00	29.891 
15:55	31.2	31.2	31.2	84	26.9	0	2	248	0.00	29.894 
16:00	30.9	30.9	30.9	86	27.2	0	2	248	0.00	29.894 
16:05	30.7	30.7	30.7	87	27.3	0	2	248	0.00	29.892 
16:10	30.7	30.7	30.7	87	27.3	0	1	248	0.00	29.892 
16:15	30.7	30.7	30.7	87	27.3	0	3	248	0.00	29.891 
16:20	30.7	30.7	30.7	87	27.3	0	1	248	0.00	29.891 
16:25	30.7	30.7	30.7	87	27.3	1	3	248	0.00	29.893 
16:30	30.7	30.7	30.7	86	27.0	1	5	248	0.00	29.893 
16:35	30.7	30.7	30.7	85	26.7	1	5	248	0.00	29.894 
16:40	30.7	30.7	30.7	85	26.7	1	4	248	0.00	29.893 
16:45	30.9	30.9	30.9	84	26.6	1	4	248	0.00	29.894 
16:50	30.9	30.9	30.9	84	26.6	1	3	248	0.00	29.897 
16:55	30.7	30.7	30.7	85	26.7	1	2	248	0.00	29.897 
17:00	30.7	30.7	30.7	85	26.7	1	4	248	0.00	29.894 
17:05	30.7	30.7	30.7	85	26.7	0	3	248	0.00	29.895 
17:10	30.7	30.7	30.7	85	26.7	0	1	248	0.00	29.893 
17:15	30.7	30.7	30.7	85	26.7	0	3	248	0.00	29.893 
17:20	30.7	30.7	30.7	85	26.7	1	3	248	0.00	29.893 
17:25	30.6	30.6	30.6	85	26.6	1	4	248	0.00	29.893 
17:30	30.4	30.4	30.4	86	26.7	0	3	248	0.00	29.894 
17:35	30.4	30.4	30.4	86	26.7	0	1	248	0.00	29.896 
17:40	30.4	30.4	30.4	87	27.0	0	2	248	0.00	29.897 
17:45	30.4	30.4	30.4	87	27.0	0	2	248	0.00	29.899 
17:50	30.4	30.4	30.4	87	27.0	0	1	248	0.00	29.896 
17:55	30.4	30.4	30.4	86	26.7	0	2	248	0.00	29.896 
18:00	30.4	30.4	30.4	86	26.7	0	2	248	0.00	29.898 
18:05	30.4	30.4	30.4	86	26.7	0	3	248	0.00	29.902 
18:10	30.4	30.4	30.4	86	26.7	0	1	248	0.00	29.905 
18:15	30.4	30.4	30.4	86	26.7	0	1	248	0.00	29.906 
18:20	30.6	30.6	30.6	86	26.9	0	1	248	0.00	29.907 
18:25	30.6	30.6	30.6	86	26.9	0	2	248	0.00	29.904 
18:30	30.4	30.4	30.4	85	26.4	0	1	248	0.00	29.907 
18:35	30.4	30.4	30.4	85	26.4	1	3	248	0.00	29.904 
18:40	30.4	30.4	30.4	85	26.4	1	3	225	0.00	29.906 
18:45	30.4	30.4	30.4	85	26.4	1	4	225	0.00	29.908 
18:50	30.4	30.4	30.4	85	26.4	0	3	225	0.00	29.909 
18:55	30.4	30.4	30.4	84	26.2	1	4	248	0.00	29.909 
19:00	30.4	30.4	30.4	84	26.2	1	3	248	0.00	29.910 
19:05	30.4	30.4	30.4	84	26.2	1	3	248	0.00	29.910 
19:10	30.4	30.4	30.4	84	26.2	1	4	248	0.00	29.910 
19:15	30.4	30.4	30.4	84	26.2	0	2	225	0.00	29.910 
19:20	30.4	30.4	30.4	84	26.2	0	1	225	0.00	29.908 
19:25	30.4	30.4	30.4	84	26.2	0	1	225	0.00	29.908 
19:30	30.4	30.4	30.4	85	26.4	0	1	225	0.00	29.904 
19:35	30.4	30.4	30.4	85	26.4	0	2	225	0.00	29.905 
19:40	30.4	30.4	30.4	85	26.4	0	1	225	0.00	29.907 
19:45	30.3	30.3	30.3	85	26.3	0	2	225	0.00	29.904 
19:50	30.3	30.3	30.3	85	26.3	0	1	225	0.00	29.907 
19:55	30.3	30.3	30.3	85	26.3	0	1	225	0.00	29.908 
20:00	30.3	30.3	30.3	85	26.3	0	2	248	0.00	29.905 
20:05	30.3	30.3	30.3	85	26.3	1	4	248	0.00	29.906 
20:10	30.3	30.3	30.3	85	26.3	1	4	248	0.00	29.904 
20:15	30.3	30.3	30.3	85	26.3	1	3	248	0.00	29.904 
20:20	30.3	30.3	30.3	85	26.3	0	3	248	0.00	29.902 
20:25	30.1	30.1	30.1	85	26.1	1	3	248	0.00	29.899 
20:30	30.1	30.1	30.1	85	26.1	0	2	248	0.00	29.898 
20:35	30.1	30.1	30.1	85	26.1	0	1	248	0.00	29.899 
20:40	30.1	30.1	30.1	85	26.1	0	2	248	0.00	29.900 
20:45	30.1	30.1	30.1	85	26.1	0	3	248	0.00	29.901 
20:50	30.1	30.1	30.1	85	26.1	0	2	248	0.00	29.903 
20:55	30.1	30.1	30.1	86	26.4	0	3	248	0.00	29.905 
21:00	30.1	30.1	30.1	85	26.1	0	3	248	0.00	29.902 
21:05	30.0	30.0	30.0	85	26.0	1	3	248	0.00	29.903 
21:10	30.0	30.0	30.0	85	26.0	0	2	248	0.00	29.904 
21:15	30.0	30.0	30.0	85	26.0	1	4	248	0.00	29.903 
21:20	30.0	30.0	30.0	85	26.0	1	3	225	0.00	29.901 
21:25	30.0	30.0	30.0	85	26.0	0	3	270	0.00	29.902 
21:30	30.0	30.0	30.0	85	26.0	0	1	248	0.00	29.906 
21:35	29.8	29.8	29.8	85	25.9	1	3	248	0.00	29.907 
21:40	29.8	29.8	29.8	86	26.1	0	2	248	0.00	29.908 
21:45	29.8	29.8	29.8	85	25.9	1	2	225	0.00	29.908 
21:50	29.8	29.8	29.8	85	25.9	1	3	248	0.00	29.908 
21:55	29.8	29.8	29.8	85	25.9	1	2	248	0.00	29.908 
22:00	29.8	29.8	29.8	85	25.9	1	3	248	0.00	29.908 
22:05	29.8	29.8	29.8	85	25.9	1	4	248	0.00	29.908 
22:10	29.8	29.8	29.8	85	25.9	1	2	248	0.00	29.908 
22:15	29.8	29.8	29.8	85	25.9	1	4	248	0.00	29.905 
22:20	29.8	29.8	29.8	84	25.6	0	3	248	0.00	29.900 
22:25	29.7	29.7	29.7	85	25.8	0	0	---	0.00	29.899 
22:30	29.7	29.7	29.7	85	25.8	0	0	---	0.00	29.898 
22:35	29.7	29.7	29.7	85	25.8	0	1	248	0.00	29.897 
22:40	29.7	29.7	29.7	85	25.8	0	1	248	0.00	29.895 
22:45	29.5	29.5	29.5	85	25.6	0	0	---	0.00	29.894 
22:50	29.5	29.5	29.5	85	25.6	0	2	248	0.00	29.896 
22:55	29.5	29.5	29.5	84	25.3	1	3	248	0.00	29.898 
23:00	29.5	29.5	29.5	84	25.3	0	2	248	0.00	29.894 
23:05	29.7	29.7	29.7	84	25.5	0	3	248	0.00	29.894 
23:10	29.7	29.7	29.7	84	25.5	0	0	---	0.00	29.892 
23:15	29.5	29.5	29.5	85	25.6	0	1	248	0.00	29.892 
23:20	29.5	29.5	29.5	85	25.6	1	3	248	0.00	29.892 
23:25	29.5	29.5	29.5	85	25.6	0	1	248	0.00	29.891 
23:30	29.7	29.7	29.7	85	25.8	0	1	248	0.00	29.890 
23:35	29.5	29.5	29.5	85	25.6	1	4	248	0.00	29.890 
23:40	29.5	29.5	29.5	86	25.8	0	2	248	0.00	29.887 
23:45	29.5	29.5	29.5	86	25.8	0	1	248	0.00	29.882 
23:50	29.5	29.5	29.5	86	25.8	0	2	248	0.00	29.879 
23:55	29.5	29.5	29.5	86	25.8	0	1	248	0.00	29.877 

CoCoRaHS
IN-AL-39
A2 Web Hosting
Creative Commons License
GoDaddy
Look for:

loaded 2017-12-10 21:21:46 • last modified 2010-11-18 10:43:29
Privacy PolicyDisclaimer
• wx.awcolley.com is powered by PmWiki v.2002016 •
• all content (unless otherwise noted) © 2017 A W Colley